Time;durP1;ratioP1;P1;durP2;ratioP2;P2;SDS_P1;SDS_P2;PMS_P1;PMS_P2;Temp;Humidity;BMP_temperature;BMP_pressure;BME280_temperature;BME280_humidity;BME280_pressure;Samples;Min_cycle;Max_cycle;Signal;HPM_P1;HPM_P2
2023/12/28 00:00:37;;;;;;;4.05;1.70;;;;;;;24.55;34.25;99546.94;4983759;28;20027;-41
2023/12/28 00:03:02;;;;;;;3.83;1.80;;;;;;;24.55;34.33;99562.75;4987893;28;20398;-44
2023/12/28 00:05:28;;;;;;;4.10;2.10;;;;;;;24.54;34.25;99550.94;4983941;28;20097;-42
2023/12/28 00:07:57;;;;;;;4.00;1.90;;;;;;;24.53;34.35;99543.16;4983602;28;20060;-43
2023/12/28 00:10:24;;;;;;;5.10;2.00;;;;;;;24.55;34.15;99546.19;4987227;28;20037;-42
2023/12/28 00:12:49;;;;;;;3.85;1.70;;;;;;;24.56;34.21;99544.94;4986350;28;20030;-42
2023/12/28 00:15:14;;;;;;;4.20;2.05;;;;;;;24.52;34.36;99547.94;4986001;28;20029;-41
2023/12/28 00:17:40;;;;;;;4.03;1.77;;;;;;;24.52;34.30;99558.22;4986556;28;20041;-44
2023/12/28 00:20:06;;;;;;;3.70;1.70;;;;;;;24.50;34.18;99547.66;4992980;28;20105;-42
2023/12/28 00:22:31;;;;;;;3.92;1.80;;;;;;;24.51;34.33;99546.41;4987987;28;20030;-41
2023/12/28 00:24:56;;;;;;;3.90;1.75;;;;;;;24.54;34.19;99544.69;4986139;28;20037;-42
2023/12/28 00:27:22;;;;;;;3.53;1.73;;;;;;;24.51;34.33;99546.41;4984448;28;20474;-42
2023/12/28 00:29:47;;;;;;;3.30;1.58;;;;;;;24.51;34.17;99551.94;4985248;28;20089;-41
2023/12/28 00:32:12;;;;;;;4.35;1.80;;;;;;;24.50;34.40;99544.16;4984662;28;20031;-41
2023/12/28 00:34:39;;;;;;;3.50;1.50;;;;;;;24.47;34.50;99536.84;4983442;28;20034;-43
2023/12/28 00:37:04;;;;;;;3.67;1.65;;;;;;;24.49;34.26;99550.91;4986158;28;20486;-45
2023/12/28 00:39:30;;;;;;;3.95;1.85;;;;;;;24.49;34.36;99556.44;4985711;28;20044;-45
2023/12/28 00:41:55;;;;;;;3.40;1.67;;;;;;;24.48;34.38;99557.66;4984641;28;20092;-42
2023/12/28 00:44:20;;;;;;;3.95;1.70;;;;;;;24.48;34.24;99558.44;4984869;28;20027;-42
2023/12/28 00:46:46;;;;;;;3.17;1.58;;;;;;;24.49;34.24;99567.47;4983622;28;20035;-41
2023/12/28 00:49:11;;;;;;;4.40;1.73;;;;;;;24.51;34.25;99562.22;4982390;28;20031;-41
2023/12/28 00:51:37;;;;;;;3.33;1.63;;;;;;;24.51;34.18;99573.25;4988651;28;20030;-44
2023/12/28 00:54:02;;;;;;;3.35;1.60;;;;;;;24.50;34.34;99566.97;4981505;28;20029;-41
2023/12/28 00:56:27;;;;;;;3.40;1.52;;;;;;;24.48;34.47;99574.97;4984149;28;20030;-42
2023/12/28 00:58:53;;;;;;;3.45;1.60;;;;;;;24.50;34.38;99577.25;4984177;28;20026;-41
2023/12/28 01:01:18;;;;;;;3.33;1.60;;;;;;;24.52;34.35;99569.25;4985416;28;20081;-42
2023/12/28 01:03:43;;;;;;;4.28;1.60;;;;;;;24.50;34.04;99577.25;4983217;28;20034;-42
2023/12/28 01:06:09;;;;;;;3.28;1.60;;;;;;;24.47;34.28;99579.00;4987692;28;20037;-41
2023/12/28 01:08:34;;;;;;;2.75;1.40;;;;;;;24.45;34.33;99581.47;4984982;28;20031;-42
2023/12/28 01:11:00;;;;;;;3.30;1.55;;;;;;;24.46;34.36;99593.28;4986223;28;20022;-42
2023/12/28 01:13:26;;;;;;;3.10;1.50;;;;;;;24.46;34.27;99593.28;4985301;28;20541;-44
2023/12/28 01:15:51;;;;;;;2.85;1.50;;;;;;;24.46;34.38;99602.31;4983428;28;20022;-43
2023/12/28 01:18:16;;;;;;;3.33;1.58;;;;;;;24.47;34.17;99594.78;4983464;28;20026;-41
2023/12/28 01:20:42;;;;;;;3.13;1.50;;;;;;;24.49;34.26;99603.34;4984512;28;20048;-45
2023/12/28 01:23:07;;;;;;;4.38;1.55;;;;;;;24.47;34.28;99601.06;4985541;28;20057;-41
2023/12/28 01:25:32;;;;;;;2.20;1.27;;;;;;;24.47;34.35;99606.56;4986600;28;20034;-42
2023/12/28 01:27:58;;;;;;;3.75;1.50;;;;;;;24.48;34.24;99599.81;4984580;28;20033;-44
2023/12/28 01:30:23;;;;;;;3.13;1.42;;;;;;;24.47;34.49;99594.78;4985224;28;20088;-42
2023/12/28 01:32:48;;;;;;;2.90;1.40;;;;;;;24.46;34.29;99604.31;4986500;28;20029;-41
2023/12/28 01:35:14;;;;;;;3.17;1.40;;;;;;;24.48;34.30;99618.38;4983646;28;20034;-41
2023/12/28 01:37:39;;;;;;;3.13;1.50;;;;;;;24.46;34.39;99610.59;4983797;28;20084;-47
2023/12/28 01:40:05;;;;;;;3.67;1.52;;;;;;;24.47;34.18;99611.34;4983776;28;20053;-42
2023/12/28 01:42:31;;;;;;;3.22;1.48;;;;;;;24.45;34.21;99609.06;4983296;28;20034;-42
2023/12/28 01:44:57;;;;;;;4.20;1.60;;;;;;;24.44;34.39;99618.59;4982601;28;20030;-46
2023/12/28 01:47:24;;;;;;;3.08;1.38;;;;;;;24.45;34.27;99622.88;4987566;28;20027;-45
2023/12/28 01:49:49;;;;;;;3.05;1.38;;;;;;;24.43;34.34;99627.34;4984994;28;20460;-43
2023/12/28 01:52:14;;;;;;;2.78;1.30;;;;;;;24.41;34.38;99636.13;4987493;28;20031;-45
2023/12/28 01:54:40;;;;;;;3.42;1.60;;;;;;;24.46;34.24;99638.19;4982089;28;20445;-41
2023/12/28 01:57:05;;;;;;;3.15;1.40;;;;;;;24.45;34.42;99641.41;4985216;28;20033;-45
2023/12/28 01:59:31;;;;;;;2.90;1.40;;;;;;;24.42;34.38;99645.91;4996683;28;20045;-45
2023/12/28 02:01:57;;;;;;;3.13;1.38;;;;;;;24.42;34.37;99654.19;4981558;28;20023;-41
2023/12/28 02:04:27;;;;;;;3.88;1.40;;;;;;;24.46;34.36;99651.97;4985002;28;20073;-41
2023/12/28 02:06:55;;;;;;;2.95;1.40;;;;;;;24.46;34.31;99651.22;4983197;28;20430;-41
2023/12/28 02:09:21;;;;;;;3.00;1.30;;;;;;;24.43;34.44;99650.19;4981149;28;20031;-41
2023/12/28 02:11:46;;;;;;;3.15;1.50;;;;;;;24.41;34.26;99657.44;4981855;28;20053;-45
2023/12/28 02:14:11;;;;;;;2.83;1.30;;;;;;;24.42;34.28;99658.94;4986334;28;20023;-41
2023/12/28 02:16:40;;;;;;;2.95;1.38;;;;;;;24.41;34.18;99657.44;4983683;28;20022;-41
2023/12/28 02:19:15;;;;;;;2.85;1.30;;;;;;;24.38;34.38;99648.88;5015427;28;20474;-41
2023/12/28 02:21:40;;;;;;;2.85;1.40;;;;;;;24.38;34.35;99659.91;4996008;28;20037;-42
2023/12/28 02:24:06;;;;;;;3.05;1.23;;;;;;;24.40;34.35;99653.91;5018569;28;20030;-44
2023/12/28 02:26:31;;;;;;;3.20;1.48;;;;;;;24.39;34.29;99658.69;4982958;28;20026;-45
2023/12/28 02:28:56;;;;;;;2.53;1.23;;;;;;;24.39;34.28;99655.16;4964137;28;20042;-41
2023/12/28 02:31:27;;;;;;;2.97;1.30;;;;;;;24.41;34.21;99657.44;4984410;28;20038;-45
2023/12/28 02:33:58;;;;;;;2.78;1.35;;;;;;;24.41;34.19;99644.41;5001845;28;20030;-41
2023/12/28 02:36:24;;;;;;;2.53;1.30;;;;;;;24.41;34.32;99651.91;4987642;28;20022;-42
2023/12/28 02:38:49;;;;;;;2.13;1.10;;;;;;;24.40;34.28;99634.59;4997477;28;21019;-42
2023/12/28 02:41:14;;;;;;;2.88;1.25;;;;;;;24.42;34.22;99637.63;4992719;28;20030;-42
2023/12/28 02:43:40;;;;;;;2.55;1.20;;;;;;;24.43;34.24;99632.88;4981661;28;20030;-41
2023/12/28 02:46:05;;;;;;;2.47;1.30;;;;;;;24.42;34.22;99639.63;4981570;28;20026;-41
2023/12/28 02:48:31;;;;;;;1.85;1.02;;;;;;;24.39;34.16;99644.88;4984802;28;20085;-42
2023/12/28 02:50:56;;;;;;;2.78;1.30;;;;;;;24.42;34.25;99636.88;4981520;28;20026;-41
2023/12/28 02:53:21;;;;;;;2.67;1.33;;;;;;;24.40;34.14;99642.88;4982845;28;20073;-41
2023/12/28 02:55:47;;;;;;;2.72;1.30;;;;;;;24.39;34.23;99655.91;4984706;28;20033;-45
2023/12/28 02:58:12;;;;;;;2.67;1.20;;;;;;;24.41;34.16;99651.91;4983550;28;20022;-42
2023/12/28 03:00:37;;;;;;;2.53;1.20;;;;;;;24.40;34.21;99653.91;4983121;28;20037;-41
2023/12/28 03:03:03;;;;;;;3.58;1.48;;;;;;;24.39;34.06;99655.91;4985653;28;20489;-41
2023/12/28 03:05:28;;;;;;;2.65;1.15;;;;;;;24.38;34.07;99646.13;4983648;28;20026;-42
2023/12/28 03:07:55;;;;;;;2.72;1.30;;;;;;;24.39;34.22;99638.59;4983216;28;20033;-42
2023/12/28 03:10:20;;;;;;;3.17;1.40;;;;;;;24.41;34.18;99651.91;4985981;28;20025;-43
2023/12/28 03:12:46;;;;;;;1.88;1.08;;;;;;;24.40;34.09;99651.16;4980619;28;20084;-41
2023/12/28 03:15:11;;;;;;;2.80;1.20;;;;;;;24.40;34.09;99648.41;4984197;28;20019;-43
2023/12/28 03:17:37;;;;;;;2.55;1.20;;;;;;;24.42;34.16;99653.44;4979607;28;20401;-41
2023/12/28 03:20:02;;;;;;;3.20;1.33;;;;;;;24.42;34.06;99647.91;4984014;28;20029;-41
2023/12/28 03:22:28;;;;;;;1.98;1.02;;;;;;;24.43;33.95;99649.44;4985124;28;20030;-42
2023/12/28 03:24:53;;;;;;;2.88;1.30;;;;;;;24.45;34.04;99658.72;4984512;28;20533;-41
2023/12/28 03:27:18;;;;;;;1.90;1.10;;;;;;;24.44;34.14;99662.72;4982130;28;20018;-41
2023/12/28 03:29:44;;;;;;;2.33;1.25;;;;;;;24.44;34.05;99664.75;4983133;28;20401;-45
2023/12/28 03:32:09;;;;;;;2.50;1.20;;;;;;;24.45;34.18;99660.72;4983264;28;20109;-42
2023/12/28 03:34:35;;;;;;;2.17;1.20;;;;;;;24.43;33.96;99652.94;4983926;28;20031;-41
2023/12/28 03:37:00;;;;;;;2.75;1.30;;;;;;;24.43;33.93;99649.44;4974337;28;20081;-46
2023/12/28 03:39:25;;;;;;;2.97;1.30;;;;;;;24.46;34.04;99642.94;4982596;28;20375;-43
2023/12/28 03:41:52;;;;;;;2.72;1.30;;;;;;;24.46;34.01;99642.94;4980357;28;20402;-42
2023/12/28 03:44:19;;;;;;;2.42;1.20;;;;;;;24.45;34.05;99633.91;4979180;28;20030;-42
2023/12/28 03:46:44;;;;;;;2.45;1.17;;;;;;;24.48;33.97;99634.94;4978963;28;20037;-44
2023/12/28 03:49:10;;;;;;;1.77;1.00;;;;;;;24.48;33.85;99632.94;4979278;28;20026;-42
2023/12/28 03:51:35;;;;;;;2.03;1.10;;;;;;;24.49;33.86;99633.69;4978160;28;20094;-42
2023/12/28 03:54:00;;;;;;;2.53;1.27;;;;;;;24.49;33.80;99623.41;4980305;28;20025;-44
2023/12/28 03:56:27;;;;;;;3.20;1.30;;;;;;;24.53;33.88;99620.44;4980054;28;20019;-41
2023/12/28 03:58:52;;;;;;;3.00;1.27;;;;;;;24.54;34.07;99621.94;4981499;28;20401;-42
2023/12/28 04:01:18;;;;;;;2.00;1.10;;;;;;;24.54;33.87;99633.72;4979622;28;20014;-41
2023/12/28 04:03:44;;;;;;;2.63;1.20;;;;;;;24.53;33.98;99625.94;4964071;28;20485;-43
2023/12/28 04:06:09;;;;;;;2.17;1.10;;;;;;;24.50;34.04;99626.91;4981125;28;20030;-44
2023/12/28 04:08:34;;;;;;;2.95;1.20;;;;;;;24.51;34.15;99617.41;4980595;28;20513;-42
2023/12/28 04:11:00;;;;;;;2.28;1.15;;;;;;;24.51;33.93;99607.13;4984284;28;20023;-41
2023/12/28 04:13:25;;;;;;;2.63;1.30;;;;;;;24.51;33.90;99596.06;4984723;28;20486;-45
2023/12/28 04:15:50;;;;;;;2.30;1.20;;;;;;;24.51;34.12;99578.75;4981450;28;20085;-41
2023/12/28 04:18:16;;;;;;;2.70;1.15;;;;;;;24.50;33.98;99582.78;4987438;28;20026;-44
2023/12/28 04:20:47;;;;;;;2.38;1.20;;;;;;;24.54;34.10;99589.59;4986719;28;20030;-43
2023/12/28 04:23:13;;;;;;;2.80;1.20;;;;;;;24.56;33.87;99594.59;4985832;28;20502;-42
2023/12/28 04:25:38;;;;;;;2.67;1.20;;;;;;;24.56;33.71;99608.41;4983694;28;20030;-41
2023/12/28 04:28:04;;;;;;;2.25;1.13;;;;;;;24.56;33.68;99608.41;4984642;28;20033;-42
2023/12/28 04:30:29;;;;;;;2.25;1.20;;;;;;;24.54;33.74;99611.66;4985731;28;20018;-41
2023/12/28 04:32:55;;;;;;;2.30;1.20;;;;;;;24.54;33.78;99616.41;4992135;28;20037;-41
2023/12/28 04:35:20;;;;;;;2.20;1.20;;;;;;;24.55;33.75;99620.69;4987793;28;20458;-42
2023/12/28 04:37:45;;;;;;;3.97;1.20;;;;;;;24.57;33.68;99624.47;4983352;28;20022;-43
2023/12/28 04:40:11;;;;;;;4.30;1.20;;;;;;;24.56;33.83;99634.00;4982547;28;20030;-41
2023/12/28 04:42:36;;;;;;;2.60;1.23;;;;;;;24.57;33.86;99626.47;4986391;28;20026;-44
2023/12/28 04:45:01;;;;;;;3.42;1.30;;;;;;;24.58;33.82;99625.22;4983736;28;20061;-46
2023/12/28 04:47:27;;;;;;;2.45;1.17;;;;;;;24.58;34.01;99612.16;4985094;28;20018;-45
2023/12/28 04:49:52;;;;;;;2.15;1.00;;;;;;;24.60;33.96;99612.44;5004664;28;20500;-43
2023/12/28 04:52:18;;;;;;;2.42;1.20;;;;;;;24.60;33.93;99619.94;4987216;28;20482;-42
2023/12/28 04:54:43;;;;;;;2.92;1.40;;;;;;;24.58;33.87;99622.47;5014786;28;20018;-41
2023/12/28 04:57:08;;;;;;;2.60;1.17;;;;;;;24.56;33.93;99619.44;4987075;28;20060;-43
2023/12/28 04:59:40;;;;;;;3.08;1.30;;;;;;;24.58;34.11;99620.44;4987833;28;20433;-41
2023/12/28 05:02:05;;;;;;;2.45;1.20;;;;;;;24.61;34.04;99624.22;4982648;28;20027;-41
2023/12/28 05:04:31;;;;;;;2.65;1.27;;;;;;;24.60;34.04;99637.28;4987536;28;20117;-41
2023/12/28 05:06:56;;;;;;;4.18;1.30;;;;;;;24.60;34.09;99633.75;4981102;28;20027;-41
2023/12/28 05:09:22;;;;;;;2.70;1.20;;;;;;;24.61;34.00;99632.50;4986201;28;20400;-45
2023/12/28 05:11:47;;;;;;;2.28;1.10;;;;;;;24.61;34.11;99632.50;4987878;28;20080;-42
2023/12/28 05:14:12;;;;;;;2.33;1.10;;;;;;;24.63;33.88;99624.50;4986505;28;20045;-41
2023/12/28 05:16:38;;;;;;;2.25;1.20;;;;;;;24.62;34.03;99634.78;4978414;28;20052;-42
2023/12/28 05:19:03;;;;;;;2.78;1.10;;;;;;;24.64;33.93;99634.28;4986043;28;20030;-43
2023/12/28 05:21:28;;;;;;;2.65;1.23;;;;;;;24.65;33.97;99633.03;4983822;28;20023;-49
2023/12/28 05:23:54;;;;;;;2.42;1.10;;;;;;;24.64;33.80;99632.28;4986315;28;20041;-41
2023/12/28 05:26:19;;;;;;;3.25;1.20;;;;;;;24.70;34.01;99629.56;4982727;28;20077;-44
2023/12/28 05:28:44;;;;;;;2.83;1.13;;;;;;;24.70;33.89;99624.03;4987218;28;20440;-41
2023/12/28 05:31:10;;;;;;;3.33;1.20;;;;;;;24.69;34.14;99622.53;4981490;28;20034;-45
2023/12/28 05:33:35;;;;;;;3.42;1.35;;;;;;;24.69;34.15;99606.72;4986268;28;20028;-41
2023/12/28 05:36:01;;;;;;;2.50;1.10;;;;;;;24.73;34.13;99615.53;4979885;28;20022;-42
2023/12/28 05:38:26;;;;;;;1.95;1.05;;;;;;;24.75;34.18;99614.28;4980617;28;20023;-43
2023/12/28 05:40:51;;;;;;;6.50;1.38;;;;;;;24.70;34.13;99618.53;4980849;28;20068;-42
2023/12/28 05:43:17;;;;;;;3.25;1.20;;;;;;;24.72;34.06;99627.06;4985519;28;20045;-41
2023/12/28 05:45:42;;;;;;;4.18;1.38;;;;;;;24.78;34.07;99627.13;4985135;28;20030;-44
2023/12/28 05:48:07;;;;;;;2.60;1.00;;;;;;;24.79;34.18;99625.84;4978822;28;20045;-41
2023/12/28 05:50:33;;;;;;;3.25;1.20;;;;;;;24.76;34.16;99627.59;4987229;28;20023;-42
2023/12/28 05:52:58;;;;;;;3.92;1.55;;;;;;;24.72;34.14;99627.06;4981337;28;20015;-41
2023/12/28 05:55:25;;;;;;;9.23;1.60;;;;;;;24.74;34.32;99621.81;4979936;28;20535;-48
2023/12/28 05:57:50;;;;;;;5.57;1.23;;;;;;;24.82;34.38;99622.09;4969235;28;20026;-46
2023/12/28 06:00:16;;;;;;;5.00;1.30;;;;;;;24.88;34.54;99626.41;4978266;28;20027;-44
2023/12/28 06:02:41;;;;;;;4.93;1.30;;;;;;;24.87;34.67;99627.66;4988552;28;20023;-44
2023/12/28 06:05:06;;;;;;;6.60;1.30;;;;;;;24.85;34.70;99624.63;4989787;28;20482;-42
2023/12/28 06:07:32;;;;;;;3.08;1.30;;;;;;;24.83;34.13;99621.59;4991474;28;20041;-42
2023/12/28 06:09:57;;;;;;;5.35;1.50;;;;;;;24.78;34.33;99629.88;4986802;28;20114;-45
2023/12/28 06:12:23;;;;;;;5.65;1.50;;;;;;;24.83;34.31;99632.66;4984089;28;21249;-43
2023/12/28 06:14:48;;;;;;;3.40;1.45;;;;;;;24.88;34.51;99636.69;4985717;28;20014;-43
2023/12/28 06:17:15;;;;;;;3.03;1.25;;;;;;;24.88;34.40;99640.22;4978645;28;20041;-42
2023/12/28 06:19:41;;;;;;;3.05;1.35;;;;;;;24.86;34.46;99626.16;4981485;28;20029;-41
2023/12/28 06:22:06;;;;;;;2.72;1.30;;;;;;;24.88;34.00;99634.69;4985204;28;20030;-42
2023/12/28 06:24:31;;;;;;;4.25;1.30;;;;;;;24.89;33.96;99636.22;4982429;28;20093;-41
2023/12/28 06:26:57;;;;;;;4.57;1.60;;;;;;;24.91;34.19;99646.75;4978332;28;20014;-43
2023/12/28 06:29:22;;;;;;;3.13;1.40;;;;;;;24.93;34.23;99652.56;4981573;28;20040;-44
2023/12/28 06:31:47;;;;;;;3.10;1.30;;;;;;;24.92;34.04;99651.78;4982777;28;20097;-42
2023/12/28 06:34:13;;;;;;;3.92;1.35;;;;;;;24.94;34.05;99643.81;4983467;28;20034;-41
2023/12/28 06:36:38;;;;;;;3.67;1.48;;;;;;;24.96;34.11;99657.88;4981306;28;20030;-43
2023/12/28 06:39:03;;;;;;;3.15;1.30;;;;;;;24.96;33.91;99654.38;4980668;28;20025;-44
2023/12/28 06:41:29;;;;;;;4.72;1.27;;;;;;;24.97;33.91;99648.34;4981392;28;20038;-49
2023/12/28 06:43:54;;;;;;;2.78;1.35;;;;;;;24.96;33.68;99655.13;4981913;28;20037;-46
2023/12/28 06:46:20;;;;;;;3.08;1.40;;;;;;;24.99;33.73;99650.59;4978587;28;20030;-46
2023/12/28 06:48:45;;;;;;;2.90;1.30;;;;;;;24.99;33.76;99656.88;4981772;28;20543;-43
2023/12/28 06:51:20;;;;;;;3.35;1.50;;;;;;;25.00;33.59;99647.34;4980086;28;20491;-44
2023/12/28 06:53:46;;;;;;;3.53;1.60;;;;;;;24.97;33.36;99637.31;4983832;28;20097;-39
2023/12/28 06:56:11;;;;;;;4.00;1.50;;;;;;;24.97;33.29;99639.31;4984013;28;20034;-41
2023/12/28 06:58:37;;;;;;;3.72;1.30;;;;;;;24.95;32.90;99642.56;4983470;28;20036;-41
2023/12/28 07:01:05;;;;;;;4.28;1.40;;;;;;;24.94;33.43;99643.81;4979240;28;20625;-40
2023/12/28 07:03:32;;;;;;;2.92;1.30;;;;;;;24.91;33.19;99641.25;4981334;28;20634;-42
2023/12/28 07:06:00;;;;;;;3.78;1.50;;;;;;;24.91;32.97;99652.28;4978931;28;20054;-44
2023/12/28 07:08:26;;;;;;;2.90;1.38;;;;;;;24.93;32.81;99664.34;4983762;28;20069;-43
2023/12/28 07:10:51;;;;;;;3.60;1.60;;;;;;;24.93;32.78;99661.59;4982040;28;20026;-43
2023/12/28 07:13:17;;;;;;;3.25;1.52;;;;;;;24.92;32.64;99668.38;4982905;28;20484;-44
2023/12/28 07:15:42;;;;;;;3.47;1.38;;;;;;;24.92;32.85;99668.38;4977280;28;20034;-43
2023/12/28 07:18:07;;;;;;;3.03;1.60;;;;;;;24.91;32.24;99666.84;4987344;28;20029;-44
2023/12/28 07:20:33;;;;;;;3.53;1.50;;;;;;;24.92;32.52;99668.38;4983834;28;20018;-46
2023/12/28 07:22:58;;;;;;;3.38;1.50;;;;;;;24.91;32.22;99672.38;4985287;28;20034;-47
2023/12/28 07:25:23;;;;;;;3.15;1.45;;;;;;;24.94;32.60;99682.47;4985933;28;20577;-45
2023/12/28 07:27:51;;;;;;;2.97;1.35;;;;;;;24.99;32.58;99689.25;4982196;28;20026;-42
2023/12/28 07:30:17;;;;;;;2.78;1.40;;;;;;;24.98;32.25;99701.56;4984404;28;20482;-43
2023/12/28 07:32:43;;;;;;;3.80;1.40;;;;;;;24.98;32.22;99702.28;4982880;28;20041;-42
2023/12/28 07:35:08;;;;;;;3.33;1.42;;;;;;;24.95;32.13;99714.34;4980976;28;20445;-41
2023/12/28 07:37:34;;;;;;;4.68;1.60;;;;;;;24.91;32.75;99710.25;4974812;28;20019;-41
2023/12/28 07:40:00;;;;;;;3.05;1.50;;;;;;;24.89;32.88;99702.47;4983433;28;20018;-41
2023/12/28 07:42:26;;;;;;;3.50;1.40;;;;;;;24.90;32.81;99714.28;4981476;28;20061;-43
2023/12/28 07:44:51;;;;;;;3.63;1.88;;;;;;;24.87;32.75;99721.53;4982778;28;20027;-43
2023/12/28 07:47:17;;;;;;;3.90;1.60;;;;;;;24.88;32.68;99720.28;4978065;28;20026;-45
2023/12/28 07:49:42;;;;;;;3.28;1.40;;;;;;;24.92;32.88;99725.59;4983537;28;20033;-42
2023/12/28 07:52:07;;;;;;;3.30;1.45;;;;;;;24.88;32.60;99725.81;4980040;28;20462;-43
2023/12/28 07:54:33;;;;;;;2.78;1.40;;;;;;;24.86;32.88;99722.03;4984304;28;20062;-43
2023/12/28 07:56:59;;;;;;;4.05;1.65;;;;;;;24.84;32.94;99725.28;4985562;28;20089;-45
2023/12/28 07:59:24;;;;;;;4.07;1.50;;;;;;;24.83;32.99;99726.50;4981189;28;20165;-43
2023/12/28 08:01:50;;;;;;;3.50;1.40;;;;;;;24.84;33.00;99739.06;4981441;28;20516;-41
2023/12/28 08:04:15;;;;;;;5.22;1.50;;;;;;;24.82;33.09;99757.38;4989863;28;20037;-43
2023/12/28 08:06:40;;;;;;;3.88;1.60;;;;;;;24.85;32.95;99762.69;4984279;28;20023;-42
2023/12/28 08:09:06;;;;;;;4.22;1.80;;;;;;;24.82;33.07;99757.38;4984418;28;20038;-43
2023/12/28 08:11:31;;;;;;;3.67;1.50;;;;;;;24.81;32.78;99744.81;4984617;28;20402;-43
2023/12/28 08:13:56;;;;;;;3.67;1.52;;;;;;;24.78;32.84;99729.97;4986166;28;20493;-43
2023/12/28 08:16:22;;;;;;;2.97;1.40;;;;;;;24.76;32.94;99740.03;4980941;28;20045;-43
2023/12/28 08:18:47;;;;;;;3.65;1.60;;;;;;;24.70;32.99;99742.72;4987668;28;20026;-42
2023/12/28 08:21:13;;;;;;;4.20;1.70;;;;;;;24.67;32.96;99752.75;4981820;28;20030;-42
2023/12/28 08:23:38;;;;;;;3.42;1.63;;;;;;;24.71;33.01;99755.28;4987997;28;20031;-44
2023/12/28 08:26:04;;;;;;;5.65;1.60;;;;;;;24.70;32.99;99757.28;4981997;28;20030;-42
2023/12/28 08:28:30;;;;;;;5.50;1.77;;;;;;;24.68;32.97;99759.78;4984797;28;20033;-42
2023/12/28 08:30:56;;;;;;;3.67;1.60;;;;;;;24.71;32.95;99758.06;4992584;28;20027;-42
2023/12/28 08:33:21;;;;;;;4.93;1.70;;;;;;;24.71;33.10;99755.28;4983782;28;20026;-42
2023/12/28 08:35:46;;;;;;;4.45;1.70;;;;;;;24.69;32.98;99750.25;4988478;28;20018;-43
2023/12/28 08:38:12;;;;;;;4.05;1.70;;;;;;;24.67;33.07;99757.50;4988827;28;20034;-43
2023/12/28 08:40:37;;;;;;;4.40;2.00;;;;;;;24.59;32.72;99751.66;4990377;28;20032;-43
2023/12/28 08:43:03;;;;;;;4.18;1.85;;;;;;;24.59;32.90;99754.41;4986921;28;20712;-43
2023/12/28 08:45:28;;;;;;;4.82;1.73;;;;;;;24.56;33.07;99754.66;4982739;28;20085;-43
2023/12/28 08:47:53;;;;;;;5.10;2.03;;;;;;;24.53;33.00;99758.38;4983467;28;20039;-43
2023/12/28 08:50:19;;;;;;;4.20;1.80;;;;;;;24.49;32.72;99768.88;4981975;28;20027;-43
2023/12/28 08:52:44;;;;;;;4.10;1.85;;;;;;;24.46;32.42;99780.88;4988028;28;20599;-43
2023/12/28 08:55:09;;;;;;;4.50;1.92;;;;;;;24.46;32.44;99786.41;4989543;28;20022;-43
2023/12/28 08:57:35;;;;;;;4.97;2.03;;;;;;;24.47;32.39;99794.19;4988739;28;20083;-43
2023/12/28 09:00:02;;;;;;;4.55;2.00;;;;;;;24.46;32.48;99800.19;4984333;28;20027;-43
2023/12/28 09:02:28;;;;;;;4.93;1.95;;;;;;;24.45;32.36;99798.69;4985360;28;20022;-43
2023/12/28 09:04:53;;;;;;;3.92;1.95;;;;;;;24.43;32.36;99799.16;4984542;28;20037;-43
2023/12/28 09:07:19;;;;;;;3.58;1.73;;;;;;;24.47;32.32;99798.97;4982275;28;20026;-43
2023/12/28 09:09:45;;;;;;;4.40;2.00;;;;;;;24.46;32.42;99800.97;4983537;28;20034;-43
2023/12/28 09:12:10;;;;;;;3.97;1.90;;;;;;;24.48;32.46;99803.22;4981766;28;20100;-45
2023/12/28 09:14:36;;;;;;;4.50;2.00;;;;;;;24.48;32.44;99797.72;4983371;28;20501;-43
2023/12/28 09:17:01;;;;;;;4.38;2.00;;;;;;;24.49;32.39;99790.97;4985499;28;20493;-43
2023/12/28 09:19:27;;;;;;;4.22;1.90;;;;;;;24.52;32.54;99790.00;4986189;28;20031;-43
2023/12/28 09:21:52;;;;;;;4.55;2.00;;;;;;;24.52;32.46;99792.75;4989035;28;20028;-43
2023/12/28 09:24:18;;;;;;;4.47;1.88;;;;;;;24.47;32.85;99787.91;4989297;28;20027;-44
2023/12/28 09:26:43;;;;;;;4.05;1.83;;;;;;;24.48;32.88;99781.16;4980839;28;20030;-44
2023/12/28 09:29:09;;;;;;;4.93;1.90;;;;;;;24.45;32.71;99774.63;4987654;28;20031;-43
2023/12/28 09:31:34;;;;;;;6.40;2.40;;;;;;;24.43;32.80;99777.09;4981581;28;20035;-43
2023/12/28 09:33:59;;;;;;;4.10;2.00;;;;;;;24.41;32.65;99776.06;4981299;28;20023;-44
2023/12/28 09:36:25;;;;;;;4.35;2.20;;;;;;;24.43;32.55;99781.84;4982563;28;20117;-43
2023/12/28 09:38:51;;;;;;;5.80;2.10;;;;;;;24.50;32.80;99782.19;4979740;28;20033;-42
2023/12/28 09:41:17;;;;;;;6.60;2.30;;;;;;;24.49;32.81;99782.69;4983903;28;20409;-40
2023/12/28 09:44:01;;;;;;;5.53;2.35;;;;;;;24.47;32.65;99787.91;5012604;28;20056;-40
2023/12/28 09:46:26;;;;;;;5.15;2.20;;;;;;;24.50;32.74;99782.19;4984411;28;20501;-39
2023/12/28 09:48:53;;;;;;;4.70;2.15;;;;;;;24.53;32.77;99785.97;4980353;28;20030;-43
2023/12/28 09:51:19;;;;;;;4.35;2.22;;;;;;;24.57;32.72;99773.50;4981882;28;20498;-46
2023/12/28 09:53:45;;;;;;;4.90;2.60;;;;;;;24.60;32.62;99771.72;4984240;28;20058;-41
2023/12/28 09:56:10;;;;;;;5.03;2.63;;;;;;;24.67;32.27;99768.53;4980614;28;20022;-40
2023/12/28 09:58:35;;;;;;;5.13;2.50;;;;;;;24.74;32.55;99754.31;4980630;28;20030;-39
2023/12/28 10:01:01;;;;;;;6.68;2.60;;;;;;;24.72;32.55;99748.53;4980867;28;20398;-37
2023/12/28 10:03:26;;;;;;;4.50;2.38;;;;;;;24.71;32.64;99749.78;4983727;28;20391;-39
2023/12/28 10:05:52;;;;;;;4.90;2.50;;;;;;;24.68;32.45;99748.75;4985942;28;20026;-40
2023/12/28 10:08:17;;;;;;;5.43;2.60;;;;;;;24.77;32.50;99745.06;4987609;28;20022;-40
2023/12/28 10:10:43;;;;;;;5.22;2.35;;;;;;;24.81;32.59;99740.03;4986767;28;20038;-39
2023/12/28 10:13:09;;;;;;;5.05;2.38;;;;;;;24.82;32.63;99746.31;4979651;28;20026;-40
2023/12/28 10:15:37;;;;;;;5.45;2.75;;;;;;;24.86;32.64;99742.09;4981953;28;20471;-40
2023/12/28 10:18:06;;;;;;;4.85;2.50;;;;;;;24.88;32.79;99742.38;4980260;28;20442;-43
2023/12/28 10:20:31;;;;;;;5.03;2.85;;;;;;;24.88;32.74;99749.91;4982503;28;20038;-41
2023/12/28 10:22:57;;;;;;;4.72;2.30;;;;;;;24.86;32.35;99747.63;4981917;28;20093;-41
2023/12/28 10:25:23;;;;;;;4.80;2.45;;;;;;;24.88;32.66;99745.13;4983678;28;20395;-41
2023/12/28 10:27:52;;;;;;;5.57;2.40;;;;;;;24.89;32.54;99743.88;5012662;28;20022;-41
2023/12/28 10:30:17;;;;;;;5.18;2.72;;;;;;;24.88;32.64;99738.84;4986350;28;20033;-43
2023/12/28 10:32:43;;;;;;;5.68;2.40;;;;;;;24.95;32.70;99746.72;4995305;28;20035;-41
2023/12/28 10:35:09;;;;;;;5.00;2.50;;;;;;;24.97;32.56;99747.00;4983695;28;20021;-42
2023/12/28 10:37:34;;;;;;;5.03;2.40;;;;;;;24.99;32.53;99739.72;4981609;28;20446;-41
2023/12/28 10:40:00;;;;;;;6.07;2.58;;;;;;;24.98;32.63;99743.72;5011105;28;20532;-41
2023/12/28 10:42:31;;;;;;;6.90;2.58;;;;;;;24.97;32.54;99742.22;4978017;28;20038;-42
2023/12/28 10:45:07;;;;;;;4.15;2.33;;;;;;;24.94;32.67;99740.44;4981502;28;20025;-41
2023/12/28 10:47:33;;;;;;;4.35;2.10;;;;;;;24.91;32.67;99746.91;4981458;28;20100;-41
2023/12/28 10:50:00;;;;;;;5.10;2.45;;;;;;;24.87;32.31;99749.13;4982796;28;20097;-41
2023/12/28 10:52:26;;;;;;;4.25;2.10;;;;;;;24.84;32.68;99744.59;4997406;28;20042;-41
2023/12/28 10:55:00;;;;;;;4.43;2.33;;;;;;;24.86;32.51;99742.09;4984088;28;20015;-41
2023/12/28 10:57:32;;;;;;;4.35;2.10;;;;;;;24.85;32.74;99740.59;4996490;28;20104;-41
2023/12/28 11:00:11;;;;;;;5.00;2.35;;;;;;;24.82;32.53;99740.81;4982972;28;20393;-41
2023/12/28 11:02:46;;;;;;;6.95;4.63;;;;;;;24.80;32.75;99749.56;4292060;28;10000512;-41
2023/12/28 11:05:12;;;;;;;7.57;5.38;;;;;;;24.77;32.71;99739.53;4979105;28;20121;-41
2023/12/28 11:07:37;;;;;;;14.07;12.00;;;;;;;24.75;32.55;99739.28;4979712;28;20026;-41
2023/12/28 11:10:04;;;;;;;15.52;12.63;;;;;;;24.75;32.60;99738.50;4977319;28;20027;-41
2023/12/28 11:12:31;;;;;;;14.90;12.57;;;;;;;24.76;32.73;99732.50;4980692;28;20098;-42
2023/12/28 11:14:56;;;;;;;15.50;12.45;;;;;;;24.73;32.58;99725.94;4960947;28;20101;-41
2023/12/28 11:17:22;;;;;;;14.40;12.35;;;;;;;24.75;32.46;99724.72;4964710;28;20036;-41
2023/12/28 11:19:47;;;;;;;15.77;12.15;;;;;;;24.76;32.53;99721.47;4976443;28;20869;-43
2023/12/28 11:22:13;;;;;;;14.30;11.85;;;;;;;24.81;32.75;99717.22;4981661;28;20057;-40
2023/12/28 11:24:39;;;;;;;13.93;11.50;;;;;;;24.80;32.85;99721.22;4974506;28;20034;-44